sensor_id;sensor_type;location;lat;lon;timestamp;pressure;altitude;pressure_sealevel;temperature;humidity
48352;BME280;34163;49.314;6.752;2023-06-22T00:02:21;99808.59;;;9.74;100.00
48352;BME280;34163;49.314;6.752;2023-06-22T00:04:46;99796.91;;;9.80;100.00
48352;BME280;34163;49.314;6.752;2023-06-22T08:45:01;99371.09;;;9.75;100.00
48352;BME280;34163;49.314;6.752;2023-06-22T08:47:27;99372.66;;;9.79;100.00
48352;BME280;34163;49.314;6.752;2023-06-22T08:50:00;99367.31;;;9.81;100.00
48352;BME280;34163;49.314;6.752;2023-06-22T08:52:28;99383.25;;;9.79;100.00
48352;BME280;34163;49.314;6.752;2023-06-22T08:54:53;99375.38;;;9.78;100.00
48352;BME280;34163;49.314;6.752;2023-06-22T08:57:18;99389.56;;;9.77;100.00
48352;BME280;34163;49.314;6.752;2023-06-22T08:59:43;99389.69;;;9.74;100.00
48352;BME280;34163;49.314;6.752;2023-06-22T09:02:09;99381.91;;;9.71;100.00
48352;BME280;34163;49.314;6.752;2023-06-22T09:04:34;99380.03;;;9.73;100.00
48352;BME280;34163;49.314;6.752;2023-06-22T09:07:02;99386.72;;;9.81;100.00
48352;BME280;34163;49.314;6.752;2023-06-22T09:09:27;99382.47;;;9.77;100.00
48352;BME280;34163;49.314;6.752;2023-06-22T09:11:52;99375.38;;;9.78;100.00
48352;BME280;34163;49.314;6.752;2023-06-22T09:14:18;99359.50;;;9.78;100.00
48352;BME280;34163;49.314;6.752;2023-06-22T09:16:43;99351.34;;;9.82;100.00
48352;BME280;34163;49.314;6.752;2023-06-22T09:19:09;99348.50;;;9.87;100.00
48352;BME280;34163;49.314;6.752;2023-06-22T09:21:34;99342.91;;;9.93;100.00
48352;BME280;34163;49.314;6.752;2023-06-22T09:23:59;99346.72;;;9.88;100.00
48352;BME280;34163;49.314;6.752;2023-06-22T09:26:24;99352.25;;;9.83;100.00
48352;BME280;34163;49.314;6.752;2023-06-22T09:28:50;99364.53;;;9.84;100.00
48352;BME280;34163;49.314;6.752;2023-06-22T09:31:15;99384.13;;;9.80;100.00
48352;BME280;34163;49.314;6.752;2023-06-22T09:33:41;99385.47;;;9.89;100.00
48352;BME280;34163;49.314;6.752;2023-06-22T09:36:07;99381.97;;;9.88;100.00
48352;BME280;34163;49.314;6.752;2023-06-22T09:38:36;99374.03;;;9.88;100.00
48352;BME280;34163;49.314;6.752;2023-06-22T09:41:01;99359.00;;;9.89;100.00
48352;BME280;34163;49.314;6.752;2023-06-22T09:43:27;99358.88;;;9.92;100.00
48352;BME280;34163;49.314;6.752;2023-06-22T09:45:52;99349.44;;;9.86;100.00
48352;BME280;34163;49.314;6.752;2023-06-22T09:48:17;99342.34;;;9.87;100.00
48352;BME280;34163;49.314;6.752;2023-06-22T09:50:42;99347.59;;;9.88;100.00
48352;BME280;34163;49.314;6.752;2023-06-22T09:53:08;99340.56;;;9.87;100.00
48352;BME280;34163;49.314;6.752;2023-06-22T09:55:33;99335.91;;;9.92;100.00
48352;BME280;34163;49.314;6.752;2023-06-22T09:57:58;99326.41;;;9.88;100.00
48352;BME280;34163;49.314;6.752;2023-06-22T10:00:23;99327.69;;;9.98;100.00
48352;BME280;34163;49.314;6.752;2023-06-22T10:02:49;99320.03;;;9.92;100.00
48352;BME280;34163;49.314;6.752;2023-06-22T10:05:15;99326.13;;;9.94;100.00
48352;BME280;34163;49.314;6.752;2023-06-22T10:07:40;99320.03;;;9.92;100.00
48352;BME280;34163;49.314;6.752;2023-06-22T10:10:08;99313.75;;;9.95;100.00
48352;BME280;34163;49.314;6.752;2023-06-22T10:12:34;99308.44;;;9.95;100.00
48352;BME280;34163;49.314;6.752;2023-06-22T10:14:59;99309.28;;;9.95;100.00
48352;BME280;34163;49.314;6.752;2023-06-22T10:17:24;99308.22;;;9.99;100.00
48352;BME280;34163;49.314;6.752;2023-06-22T10:19:50;99307.31;;;10.00;100.00
48352;BME280;34163;49.314;6.752;2023-06-22T10:22:15;99302.94;;;9.99;100.00
48352;BME280;34163;49.314;6.752;2023-06-22T10:24:41;99308.16;;;10.01;100.00
48352;BME280;34163;49.314;6.752;2023-06-22T10:27:10;99307.38;;;9.99;100.00
48352;BME280;34163;49.314;6.752;2023-06-22T10:29:35;99295.00;;;9.99;100.00
48352;BME280;34163;49.314;6.752;2023-06-22T10:32:01;99297.50;;;10.03;100.00
48352;BME280;34163;49.314;6.752;2023-06-22T10:34:26;99286.91;;;10.03;100.00
48352;BME280;34163;49.314;6.752;2023-06-22T10:36:51;99292.06;;;10.06;100.00
48352;BME280;34163;49.314;6.752;2023-06-22T10:39:16;99287.59;;;10.06;100.00
48352;BME280;34163;49.314;6.752;2023-06-22T10:41:42;99276.81;;;10.11;100.00
48352;BME280;34163;49.314;6.752;2023-06-22T10:44:07;99274.06;;;10.12;100.00
48352;BME280;34163;49.314;6.752;2023-06-22T10:46:32;99271.34;;;10.14;100.00
48352;BME280;34163;49.314;6.752;2023-06-22T10:48:57;99265.28;;;10.12;100.00
48352;BME280;34163;49.314;6.752;2023-06-22T10:51:24;99257.19;;;10.15;100.00
48352;BME280;34163;49.314;6.752;2023-06-22T10:53:49;99263.50;;;10.12;100.00
48352;BME280;34163;49.314;6.752;2023-06-22T10:56:16;99261.53;;;10.16;100.00
48352;BME280;34163;49.314;6.752;2023-06-22T10:58:41;99265.91;;;10.17;100.00
48352;BME280;34163;49.314;6.752;2023-06-22T11:01:06;99269.25;;;10.21;100.00
48352;BME280;34163;49.314;6.752;2023-06-22T11:03:31;99264.03;;;10.19;100.00
48352;BME280;34163;49.314;6.752;2023-06-22T11:05:56;99256.09;;;10.19;100.00
48352;BME280;34163;49.314;6.752;2023-06-22T11:08:22;99257.03;;;10.18;100.00
48352;BME280;34163;49.314;6.752;2023-06-22T11:10:47;99254.25;;;10.21;100.00
48352;BME280;34163;49.314;6.752;2023-06-22T11:13:12;99241.16;;;10.18;100.00
48352;BME280;34163;49.314;6.752;2023-06-22T11:15:38;99246.47;;;10.18;100.00
48352;BME280;34163;49.314;6.752;2023-06-22T11:18:03;99244.59;;;10.20;100.00
48352;BME280;34163;49.314;6.752;2023-06-22T11:20:30;99240.53;;;10.30;100.00
48352;BME280;34163;49.314;6.752;2023-06-22T11:22:55;99248.53;;;10.29;100.00
48352;BME280;34163;49.314;6.752;2023-06-22T11:25:20;99241.63;;;10.26;100.00
48352;BME280;34163;49.314;6.752;2023-06-22T11:27:46;99241.72;;;10.25;100.00
48352;BME280;34163;49.314;6.752;2023-06-22T11:30:11;99242.63;;;10.24;100.00
48352;BME280;34163;49.314;6.752;2023-06-22T11:32:36;99245.28;;;10.24;100.00
48352;BME280;34163;49.314;6.752;2023-06-22T11:35:01;99236.56;;;10.22;100.00
48352;BME280;34163;49.314;6.752;2023-06-22T11:37:27;99232.13;;;10.22;100.00
48352;BME280;34163;49.314;6.752;2023-06-22T11:39:52;99236.41;;;10.25;100.00
48352;BME280;34163;49.314;6.752;2023-06-22T11:42:19;99220.44;;;10.26;100.00
48352;BME280;34163;49.314;6.752;2023-06-22T11:44:45;99228.53;;;10.23;100.00
48352;BME280;34163;49.314;6.752;2023-06-22T11:47:10;99216.22;;;10.22;100.00
48352;BME280;34163;49.314;6.752;2023-06-22T11:49:35;99218.94;;;10.21;100.00
48352;BME280;34163;49.314;6.752;2023-06-22T11:52:01;99223.41;;;10.20;100.00
48352;BME280;34163;49.314;6.752;2023-06-22T11:54:26;99187.25;;;10.19;100.00
48352;BME280;34163;49.314;6.752;2023-06-22T11:56:51;99193.34;;;10.21;100.00
48352;BME280;34163;49.314;6.752;2023-06-22T11:59:16;99206.66;;;10.20;100.00
48352;BME280;34163;49.314;6.752;2023-06-22T12:01:42;99192.47;;;10.21;100.00
48352;BME280;34163;49.314;6.752;2023-06-22T12:04:07;99196.84;;;10.22;100.00
48352;BME280;34163;49.314;6.752;2023-06-22T12:06:35;99198.66;;;10.21;100.00
48352;BME280;34163;49.314;6.752;2023-06-22T12:09:03;99213.66;;;10.21;100.00
48352;BME280;34163;49.314;6.752;2023-06-22T12:11:29;99205.63;;;10.22;100.00
48352;BME280;34163;49.314;6.752;2023-06-22T12:13:54;99213.66;;;10.21;100.00
48352;BME280;34163;49.314;6.752;2023-06-22T12:16:20;99196.69;;;10.25;100.00
48352;BME280;34163;49.314;6.752;2023-06-22T12:18:46;99197.63;;;10.24;100.00
48352;BME280;34163;49.314;6.752;2023-06-22T12:21:12;99200.19;;;10.25;100.00
48352;BME280;34163;49.314;6.752;2023-06-22T12:23:37;99201.19;;;10.23;100.00
48352;BME280;34163;49.314;6.752;2023-06-22T12:26:02;99203.94;;;10.21;100.00
48352;BME280;34163;49.314;6.752;2023-06-22T12:28:27;99193.34;;;10.21;100.00
48352;BME280;34163;49.314;6.752;2023-06-22T12:30:53;99194.06;;;10.25;100.00
48352;BME280;34163;49.314;6.752;2023-06-22T12:33:18;99187.09;;;10.22;100.00
48352;BME280;34163;49.314;6.752;2023-06-22T12:35:43;99196.63;;;10.26;100.00
48352;BME280;34163;49.314;6.752;2023-06-22T12:38:10;99193.00;;;10.27;100.00
48352;BME280;34163;49.314;6.752;2023-06-22T12:40:35;99180.56;;;10.29;100.00
48352;BME280;34163;49.314;6.752;2023-06-22T12:43:00;99169.19;;;10.27;100.00
48352;BME280;34163;49.314;6.752;2023-06-22T12:45:27;99154.41;;;10.23;100.00
48352;BME280;34163;49.314;6.752;2023-06-22T12:47:54;99167.28;;;10.48;100.00
48352;BME280;34163;49.314;6.752;2023-06-22T12:50:19;99151.44;;;10.64;100.00
48352;BME280;34163;49.314;6.752;2023-06-22T12:52:44;99148.97;;;10.44;100.00
48352;BME280;34163;49.314;6.752;2023-06-22T12:55:09;99146.72;;;10.36;100.00
48352;BME280;34163;49.314;6.752;2023-06-22T12:57:34;99139.09;;;10.63;100.00
48352;BME280;34163;49.314;6.752;2023-06-22T13:00:00;99145.44;;;10.43;100.00
48352;BME280;34163;49.314;6.752;2023-06-22T13:02:25;99137.41;;;10.45;100.00
48352;BME280;34163;49.314;6.752;2023-06-22T13:04:51;99147.25;;;10.43;100.00
48352;BME280;34163;49.314;6.752;2023-06-22T13:07:16;99154.34;;;10.42;100.00
48352;BME280;34163;49.314;6.752;2023-06-22T13:09:41;99153.94;;;10.50;100.00
48352;BME280;34163;49.314;6.752;2023-06-22T13:12:07;99174.81;;;10.39;100.00
48352;BME280;34163;49.314;6.752;2023-06-22T13:14:32;99171.00;;;10.27;100.00
48352;BME280;34163;49.314;6.752;2023-06-22T13:16:57;99190.44;;;10.61;100.00
48352;BME280;34163;49.314;6.752;2023-06-22T13:19:22;99197.25;;;10.49;100.00
48352;BME280;34163;49.314;6.752;2023-06-22T13:21:48;99209.72;;;10.47;100.00
48352;BME280;34163;49.314;6.752;2023-06-22T13:24:13;99215.06;;;10.28;100.00
48352;BME280;34163;49.314;6.752;2023-06-22T13:26:38;99206.91;;;10.15;100.00
48352;BME280;34163;49.314;6.752;2023-06-22T13:29:04;99209.69;;;10.12;100.00
48352;BME280;34163;49.314;6.752;2023-06-22T13:31:29;99208.59;;;10.16;100.00
48352;BME280;34163;49.314;6.752;2023-06-22T13:33:54;99214.03;;;10.13;100.00
48352;BME280;34163;49.314;6.752;2023-06-22T13:36:19;99200.81;;;10.13;100.00
48352;BME280;34163;49.314;6.752;2023-06-22T13:38:44;99196.75;;;10.06;100.00
48352;BME280;34163;49.314;6.752;2023-06-22T13:41:10;99182.41;;;10.10;100.00
48352;BME280;34163;49.314;6.752;2023-06-22T13:43:35;99182.56;;;10.07;100.00
48352;BME280;34163;49.314;6.752;2023-06-22T13:46:00;99179.09;;;10.06;100.00
48352;BME280;34163;49.314;6.752;2023-06-22T13:48:26;99187.13;;;10.40;100.00
48352;BME280;34163;49.314;6.752;2023-06-22T13:50:53;99185.38;;;10.56;100.00
48352;BME280;34163;49.314;6.752;2023-06-22T13:53:18;99179.88;;;10.43;100.00
48352;BME280;34163;49.314;6.752;2023-06-22T13:55:44;99186.47;;;10.69;100.00
48352;BME280;34163;49.314;6.752;2023-06-22T13:58:09;99189.63;;;10.43;100.00
48352;BME280;34163;49.314;6.752;2023-06-22T14:00:34;99185.06;;;10.27;100.00
48352;BME280;34163;49.314;6.752;2023-06-22T14:02:59;99195.50;;;10.13;100.00
48352;BME280;34163;49.314;6.752;2023-06-22T14:05:25;99188.91;;;10.22;100.00
48352;BME280;34163;49.314;6.752;2023-06-22T14:07:50;99192.41;;;10.22;100.00
48352;BME280;34163;49.314;6.752;2023-06-22T14:10:15;99186.66;;;10.14;100.00
48352;BME280;34163;49.314;6.752;2023-06-22T14:12:40;99179.09;;;10.24;100.00
48352;BME280;34163;49.314;6.752;2023-06-22T14:15:06;99174.47;;;10.10;100.00
48352;BME280;34163;49.314;6.752;2023-06-22T14:17:32;99170.28;;;10.06;100.00
48352;BME280;34163;49.314;6.752;2023-06-22T14:19:57;99187.25;;;10.02;100.00
48352;BME280;34163;49.314;6.752;2023-06-22T14:22:23;99182.09;;;9.98;100.00
48352;BME280;34163;49.314;6.752;2023-06-22T14:24:48;99179.94;;;10.07;100.00
48352;BME280;34163;49.314;6.752;2023-06-22T14:27:13;99185.88;;;10.12;100.00
48352;BME280;34163;49.314;6.752;2023-06-22T14:29:39;99192.53;;;10.02;100.00
48352;BME280;34163;49.314;6.752;2023-06-22T14:32:04;99182.84;;;10.02;100.00
48352;BME280;34163;49.314;6.752;2023-06-22T14:34:31;99156.53;;;12.99;100.00
48352;BME280;34163;49.314;6.752;2023-06-22T14:36:56;99179.78;;;10.96;100.00
48352;BME280;34163;49.314;6.752;2023-06-22T14:39:21;99175.75;;;10.55;100.00
48352;BME280;34163;49.314;6.752;2023-06-22T14:41:47;99172.09;;;10.40;100.00
48352;BME280;34163;49.314;6.752;2023-06-22T14:44:12;99169.09;;;10.29;100.00
48352;BME280;34163;49.314;6.752;2023-06-22T14:46:37;99170.44;;;10.20;100.00
48352;BME280;34163;49.314;6.752;2023-06-22T14:49:02;99171.28;;;10.21;100.00
48352;BME280;34163;49.314;6.752;2023-06-22T14:51:28;99167.03;;;10.18;100.00
48352;BME280;34163;49.314;6.752;2023-06-22T14:53:53;99172.56;;;10.13;100.00
48352;BME280;34163;49.314;6.752;2023-06-22T14:56:18;99165.47;;;10.14;100.00
48352;BME280;34163;49.314;6.752;2023-06-22T14:58:43;99171.69;;;10.13;100.00
48352;BME280;34163;49.314;6.752;2023-06-22T15:01:12;99169.91;;;10.13;100.00
48352;BME280;34163;49.314;6.752;2023-06-22T15:03:37;99182.56;;;10.07;100.00
48352;BME280;34163;49.314;6.752;2023-06-22T15:06:03;99185.56;;;10.18;100.00
48352;BME280;34163;49.314;6.752;2023-06-22T15:08:28;99179.09;;;10.06;100.00
48352;BME280;34163;49.314;6.752;2023-06-22T15:10:54;99167.81;;;10.03;100.00
48352;BME280;34163;49.314;6.752;2023-06-22T15:13:19;99167.88;;;10.01;100.00
48352;BME280;34163;49.314;6.752;2023-06-22T15:15:47;99172.16;;;10.04;100.00
48352;BME280;34163;49.314;6.752;2023-06-22T15:18:13;99167.19;;;9.97;100.00
48352;BME280;34163;49.314;6.752;2023-06-22T15:20:39;99166.06;;;10.02;100.00
48352;BME280;34163;49.314;6.752;2023-06-22T15:23:05;99180.13;;;10.04;100.00
48352;BME280;34163;49.314;6.752;2023-06-22T15:25:31;99181.56;;;10.09;100.00
48352;BME280;34163;49.314;6.752;2023-06-22T15:27:56;99200.19;;;10.08;100.00
48352;BME280;34163;49.314;6.752;2023-06-22T15:30:21;99185.06;;;10.10;100.00
48352;BME280;34163;49.314;6.752;2023-06-22T15:32:47;99178.94;;;10.09;100.00
48352;BME280;34163;49.314;6.752;2023-06-22T15:35:14;99176.50;;;10.05;100.00
48352;BME280;34163;49.314;6.752;2023-06-22T15:37:41;99193.81;;;10.12;100.00
48352;BME280;34163;49.314;6.752;2023-06-22T15:40:07;99214.53;;;10.21;100.00
48352;BME280;34163;49.314;6.752;2023-06-22T15:42:32;99207.81;;;10.14;100.00
48352;BME280;34163;49.314;6.752;2023-06-22T15:44:57;99211.09;;;10.19;100.00
48352;BME280;34163;49.314;6.752;2023-06-22T15:47:22;99211.53;;;10.10;100.00
48352;BME280;34163;49.314;6.752;2023-06-22T15:49:48;99216.13;;;10.06;100.00
48352;BME280;34163;49.314;6.752;2023-06-22T15:52:13;99216.91;;;10.08;100.00
48352;BME280;34163;49.314;6.752;2023-06-22T15:54:42;99225.28;;;10.18;100.00
48352;BME280;34163;49.314;6.752;2023-06-22T15:57:08;99239.13;;;10.23;100.00
48352;BME280;34163;49.314;6.752;2023-06-22T15:59:33;99244.44;;;10.23;100.00
48352;BME280;34163;49.314;6.752;2023-06-22T16:01:58;99245.69;;;10.33;100.00
48352;BME280;34163;49.314;6.752;2023-06-22T16:04:23;99254.88;;;10.26;100.00
48352;BME280;34163;49.314;6.752;2023-06-22T16:06:49;99252.53;;;10.20;100.00
48352;BME280;34163;49.314;6.752;2023-06-22T16:09:14;99255.94;;;10.22;100.00
48352;BME280;34163;49.314;6.752;2023-06-22T16:11:39;99246.19;;;10.23;100.00
48352;BME280;34163;49.314;6.752;2023-06-22T16:14:04;99254.56;;;10.15;100.00
48352;BME280;34163;49.314;6.752;2023-06-22T16:16:30;99254.31;;;10.20;100.00
48352;BME280;34163;49.314;6.752;2023-06-22T16:18:55;99261.38;;;10.19;100.00
48352;BME280;34163;49.314;6.752;2023-06-22T16:21:20;99255.47;;;10.14;100.00
48352;BME280;34163;49.314;6.752;2023-06-22T16:23:46;99262.78;;;10.09;100.00
48352;BME280;34163;49.314;6.752;2023-06-22T16:26:11;99249.41;;;10.12;100.00
48352;BME280;34163;49.314;6.752;2023-06-22T16:28:36;99256.94;;;10.02;100.00
48352;BME280;34163;49.314;6.752;2023-06-22T16:31:01;99262.16;;;10.04;100.00
48352;BME280;34163;49.314;6.752;2023-06-22T16:33:27;99251.66;;;10.02;100.00
48352;BME280;34163;49.314;6.752;2023-06-22T16:35:52;99257.78;;;10.03;100.00
48352;BME280;34163;49.314;6.752;2023-06-22T16:38:17;99262.38;;;9.99;100.00
48352;BME280;34163;49.314;6.752;2023-06-22T16:40:42;99264.25;;;10.14;100.00
48352;BME280;34163;49.314;6.752;2023-06-22T16:43:08;99269.84;;;10.08;100.00
48352;BME280;34163;49.314;6.752;2023-06-22T16:45:33;99268.38;;;10.03;100.00
48352;BME280;34163;49.314;6.752;2023-06-22T16:47:59;99270.09;;;10.04;100.00
48352;BME280;34163;49.314;6.752;2023-06-22T16:50:24;99281.63;;;10.03;100.00
48352;BME280;34163;49.314;6.752;2023-06-22T16:52:50;99268.16;;;10.07;100.00
48352;BME280;34163;49.314;6.752;2023-06-22T16:55:15;99276.63;;;9.96;100.00
48352;BME280;34163;49.314;6.752;2023-06-22T16:57:41;99295.28;;;9.93;100.00
48352;BME280;34163;49.314;6.752;2023-06-22T17:00:06;99299.44;;;9.99;100.00
48352;BME280;34163;49.314;6.752;2023-06-22T17:02:35;99299.72;;;9.93;100.00
48352;BME280;34163;49.314;6.752;2023-06-22T17:05:03;99293.19;;;10.00;100.00
48352;BME280;34163;49.314;6.752;2023-06-22T17:07:29;99301.94;;;10.02;100.00
48352;BME280;34163;49.314;6.752;2023-06-22T17:09:58;99319.59;;;10.02;100.00
48352;BME280;34163;49.314;6.752;2023-06-22T17:12:23;99313.31;;;10.04;100.00
48352;BME280;34163;49.314;6.752;2023-06-22T17:14:50;99318.59;;;10.04;100.00
48352;BME280;34163;49.314;6.752;2023-06-22T17:17:16;99326.63;;;10.03;100.00
48352;BME280;34163;49.314;6.752;2023-06-22T17:19:43;99325.50;;;10.07;100.00
48352;BME280;34163;49.314;6.752;2023-06-22T17:22:09;99329.25;;;10.03;100.00
48352;BME280;34163;49.314;6.752;2023-06-22T17:24:34;99327.38;;;10.05;100.00
48352;BME280;34163;49.314;6.752;2023-06-22T17:27:00;99332.81;;;10.02;100.00
48352;BME280;34163;49.314;6.752;2023-06-22T17:29:29;99338.13;;;10.02;100.00
48352;BME280;34163;49.314;6.752;2023-06-22T17:32:01;99347.28;;;9.94;100.00
48352;BME280;34163;49.314;6.752;2023-06-22T17:34:27;99350.44;;;10.03;100.00
48352;BME280;34163;49.314;6.752;2023-06-22T17:36:56;99351.22;;;10.05;100.00
48352;BME280;34163;49.314;6.752;2023-06-22T17:39:23;99366.88;;;9.90;100.00
48352;BME280;34163;49.314;6.752;2023-06-22T17:41:49;99364.25;;;9.90;100.00
48352;BME280;34163;49.314;6.752;2023-06-22T17:44:24;99370.31;;;9.92;100.00
48352;BME280;34163;49.314;6.752;2023-06-22T17:46:57;99379.53;;;9.84;100.00
48352;BME280;34163;49.314;6.752;2023-06-22T17:49:25;99382.13;;;9.85;100.00
48352;BME280;34163;49.314;6.752;2023-06-22T17:51:51;99383.03;;;9.84;100.00
48352;BME280;34163;49.314;6.752;2023-06-22T17:54:17;99389.00;;;9.89;100.00
48352;BME280;34163;49.314;6.752;2023-06-22T17:56:47;99404.94;;;9.88;100.00
48352;BME280;34163;49.314;6.752;2023-06-22T17:59:12;99398.84;;;9.86;100.00
48352;BME280;34163;49.314;6.752;2023-06-22T18:01:38;99405.88;;;9.87;100.00
48352;BME280;34163;49.314;6.752;2023-06-22T18:04:10;99410.38;;;9.85;100.00
48352;BME280;34163;49.314;6.752;2023-06-22T18:06:36;99420.91;;;9.86;100.00
48352;BME280;34163;49.314;6.752;2023-06-22T18:09:03;99424.53;;;9.84;100.00
48352;BME280;34163;49.314;6.752;2023-06-22T18:11:45;99424.47;;;9.85;100.00
48352;BME280;34163;49.314;6.752;2023-06-22T18:14:13;99424.72;;;9.79;100.00
48352;BME280;34163;49.314;6.752;2023-06-22T18:16:39;99419.38;;;9.80;100.00
48352;BME280;34163;49.314;6.752;2023-06-22T18:19:05;99432.69;;;9.79;100.00
48352;BME280;34163;49.314;6.752;2023-06-22T18:21:31;99435.38;;;9.77;100.00
48352;BME280;34163;49.314;6.752;2023-06-22T18:23:57;99439.84;;;9.77;100.00
48352;BME280;34163;49.314;6.752;2023-06-22T18:26:23;99440.69;;;9.77;100.00
48352;BME280;34163;49.314;6.752;2023-06-22T18:28:50;99453.06;;;9.77;100.00
48352;BME280;34163;49.314;6.752;2023-06-22T18:31:15;99442.34;;;9.80;100.00
48352;BME280;34163;49.314;6.752;2023-06-22T18:33:41;99454.19;;;9.71;100.00
48352;BME280;34163;49.314;6.752;2023-06-22T18:36:06;99460.22;;;9.75;100.00
48352;BME280;34163;49.314;6.752;2023-06-22T18:38:32;99470.69;;;9.76;100.00
48352;BME280;34163;49.314;6.752;2023-06-22T18:40:57;99466.88;;;9.84;100.00
48352;BME280;34163;49.314;6.752;2023-06-22T18:43:23;99461.91;;;9.76;100.00
48352;BME280;34163;49.314;6.752;2023-06-22T18:45:49;99456.50;;;9.79;100.00
48352;BME280;34163;49.314;6.752;2023-06-22T18:48:14;99458.41;;;9.75;100.00
48352;BME280;34163;49.314;6.752;2023-06-22T18:50:47;99461.78;;;9.79;100.00
48352;BME280;34163;49.314;6.752;2023-06-22T18:53:14;99461.00;;;9.77;100.00
48352;BME280;34163;49.314;6.752;2023-06-22T18:55:41;99474.88;;;9.82;100.00
48352;BME280;34163;49.314;6.752;2023-06-22T18:58:16;99473.34;;;9.76;100.00
48352;BME280;34163;49.314;6.752;2023-06-22T19:00:43;99481.09;;;9.81;100.00
48352;BME280;34163;49.314;6.752;2023-06-22T19:03:09;99475.78;;;9.81;100.00
48352;BME280;34163;49.314;6.752;2023-06-22T19:05:47;99478.50;;;9.79;100.00
48352;BME280;34163;49.314;6.752;2023-06-22T19:08:12;99497.66;;;9.86;100.00
48352;BME280;34163;49.314;6.752;2023-06-22T19:15:42;99507.94;;;9.92;100.00
48352;BME280;34163;49.314;6.752;2023-06-22T19:18:17;99507.00;;;9.93;100.00
48352;BME280;34163;49.314;6.752;2023-06-22T19:20:42;99507.34;;;9.86;100.00
48352;BME280;34163;49.314;6.752;2023-06-22T19:23:30;99519.19;;;9.97;100.00
48352;BME280;34163;49.314;6.752;2023-06-22T19:25:56;99516.03;;;9.89;100.00
48352;BME280;34163;49.314;6.752;2023-06-22T19:28:25;99525.53;;;9.93;100.00
48352;BME280;34163;49.314;6.752;2023-06-22T19:30:51;99536.44;;;9.86;100.00
48352;BME280;34163;49.314;6.752;2023-06-22T19:33:17;99548.06;;;9.83;100.00
48352;BME280;34163;49.314;6.752;2023-06-22T19:35:42;99550.50;;;9.88;100.00
48352;BME280;34163;49.314;6.752;2023-06-22T19:38:08;99544.31;;;9.87;100.00
48352;BME280;34163;49.314;6.752;2023-06-22T19:40:34;99548.97;;;9.82;100.00
48352;BME280;34163;49.314;6.752;2023-06-22T19:42:59;99549.75;;;9.84;100.00
48352;BME280;34163;49.314;6.752;2023-06-22T19:45:24;99551.63;;;9.82;100.00
48352;BME280;34163;49.314;6.752;2023-06-22T19:47:49;99546.44;;;9.79;100.00
48352;BME280;34163;49.314;6.752;2023-06-22T19:50:16;99548.31;;;9.77;100.00
48352;BME280;34163;49.314;6.752;2023-06-22T19:52:45;99547.53;;;9.75;100.00
48352;BME280;34163;49.314;6.752;2023-06-22T19:55:11;99556.19;;;9.78;100.00
48352;BME280;34163;49.314;6.752;2023-06-22T19:57:42;99554.38;;;9.79;100.00
48352;BME280;34163;49.314;6.752;2023-06-22T20:00:12;99562.19;;;9.82;100.00
48352;BME280;34163;49.314;6.752;2023-06-22T20:02:41;99560.47;;;9.81;100.00
48352;BME280;34163;49.314;6.752;2023-06-22T20:05:07;99559.75;;;9.77;100.00
48352;BME280;34163;49.314;6.752;2023-06-22T20:07:34;99562.59;;;9.73;100.00
48352;BME280;34163;49.314;6.752;2023-06-22T20:10:14;99568.75;;;9.73;100.00
48352;BME280;34163;49.314;6.752;2023-06-22T20:12:39;99572.78;;;9.82;100.00
48352;BME280;34163;49.314;6.752;2023-06-22T20:17:42;99571.06;;;9.81;100.00
48352;BME280;34163;49.314;6.752;2023-06-22T20:20:22;99566.78;;;9.78;100.00
48352;BME280;34163;49.314;6.752;2023-06-22T20:22:47;99559.94;;;9.73;100.00
48352;BME280;34163;49.314;6.752;2023-06-22T20:25:17;99572.97;;;9.77;100.00
48352;BME280;34163;49.314;6.752;2023-06-22T20:27:42;99569.34;;;9.80;100.00
48352;BME280;34163;49.314;6.752;2023-06-22T20:30:14;99579.94;;;9.80;100.00
48352;BME280;34163;49.314;6.752;2023-06-22T20:35:13;99583.31;;;9.84;100.00
48352;BME280;34163;49.314;6.752;2023-06-22T20:37:39;99587.22;;;9.75;100.00
48352;BME280;34163;49.314;6.752;2023-06-22T20:40:06;99604.06;;;9.72;100.00
48352;BME280;34163;49.314;6.752;2023-06-22T20:42:31;99590.41;;;10.04;100.00
48352;BME280;34163;49.314;6.752;2023-06-22T20:44:57;99594.53;;;9.89;100.00
48352;BME280;34163;49.314;6.752;2023-06-22T20:47:22;99594.69;;;10.06;100.00
48352;BME280;34163;49.314;6.752;2023-06-22T20:49:48;99601.75;;;9.85;100.00
48352;BME280;34163;49.314;6.752;2023-06-22T20:52:14;99606.41;;;10.00;100.00
48352;BME280;34163;49.314;6.752;2023-06-22T20:54:42;99611.56;;;10.04;100.00
48352;BME280;34163;49.314;6.752;2023-06-22T20:57:07;99602.38;;;10.33;100.00
48352;BME280;34163;49.314;6.752;2023-06-22T20:59:32;99617.66;;;10.85;100.00
48352;BME280;34163;49.314;6.752;2023-06-22T21:01:57;99620.28;;;11.23;100.00
48352;BME280;34163;49.314;6.752;2023-06-22T21:04:23;99629.22;;;11.39;100.00
48352;BME280;34163;49.314;6.752;2023-06-22T21:06:48;99643.16;;;10.87;100.00
48352;BME280;34163;49.314;6.752;2023-06-22T21:09:13;99645.81;;;11.25;100.00
48352;BME280;34163;49.314;6.752;2023-06-22T21:11:40;99653.41;;;11.70;100.00
48352;BME280;34163;49.314;6.752;2023-06-22T21:14:06;99656.50;;;11.97;100.00
48352;BME280;34163;49.314;6.752;2023-06-22T21:16:31;99667.19;;;11.59;100.00
48352;BME280;34163;49.314;6.752;2023-06-22T21:18:56;99670.09;;;11.16;100.00
48352;BME280;34163;49.314;6.752;2023-06-22T21:21:21;99676.56;;;10.92;100.00
48352;BME280;34163;49.314;6.752;2023-06-22T21:23:47;99694.44;;;10.86;100.00
48352;BME280;34163;49.314;6.752;2023-06-22T21:26:12;99701.91;;;10.97;100.00
48352;BME280;34163;49.314;6.752;2023-06-22T21:28:37;99703.22;;;10.88;100.00
48352;BME280;34163;49.314;6.752;2023-06-22T21:31:02;99699.25;;;10.78;100.00
48352;BME280;34163;49.314;6.752;2023-06-22T21:33:28;99710.59;;;10.61;100.00
48352;BME280;34163;49.314;6.752;2023-06-22T21:35:53;99719.47;;;10.60;100.00
48352;BME280;34163;49.314;6.752;2023-06-22T21:38:18;99714.63;;;10.70;100.00